FMHAV 40G-40G

Flight info

Callsign FMHAV
Flight time N/A
Altitude 5000
Route VFR
Aircraft C172/L-SDE3FGHIRWY/LB1

Departure

Time 2026-04-30 21:27
Airport Valle Airport (40G)

Arrival

Time N/A
Airport Valle Airport (40G)
Time Latitude Longitude Altitude Speed Heading
2026-04-30 21:19 35.64885 -112.14136 6002 ft 0 kts
2026-04-30 21:21 35.64887 -112.14136 6001 ft 0 kts
2026-04-30 21:21 35.64893 -112.14139 6001 ft 1 kts 303°
2026-04-30 21:21 35.64893 -112.14195 6001 ft 5 kts 254°
2026-04-30 21:22 35.64903 -112.14248 6001 ft 10 kts 346°
2026-04-30 21:22 35.65122 -112.14365 6000 ft 4 kts 332°
2026-04-30 21:23 35.65131 -112.14397 6000 ft 6 kts 259°
2026-04-30 21:23 35.65129 -112.14405 6000 ft 0 kts 236°
2026-04-30 21:23 35.65115 -112.14439 6000 ft 9 kts 248°
2026-04-30 21:24 35.65077 -112.14549 6000 ft 17 kts 246°
2026-04-30 21:24 35.65037 -112.14665 6000 ft 11 kts 244°
2026-04-30 21:24 35.64994 -112.14780 6000 ft 18 kts 245°
2026-04-30 21:24 35.64996 -112.14838 6000 ft 2 kts 355°
2026-04-30 21:25 35.64997 -112.14838 6000 ft 0 kts 18°
2026-04-30 21:26 35.65566 -112.14568 6081 ft 66 kts 22°
2026-04-30 21:26 35.65957 -112.14397 6298 ft 59 kts 18°
2026-04-30 21:27 35.66701 -112.14109 6642 ft 54 kts 13°
2026-04-30 21:27 35.67078 -112.14006 6748 ft 58 kts 13°
2026-04-30 21:27 35.67480 -112.13896 6892 ft 60 kts 10°
2026-04-30 21:28 35.68224 -112.13434 7142 ft 71 kts 58°
2026-04-30 21:28 35.68457 -112.12904 7295 ft 71 kts 60°
2026-04-30 21:28 35.68962 -112.11804 7566 ft 74 kts 57°
2026-04-30 21:29 35.69226 -112.11266 7710 ft 73 kts 56°
2026-04-30 21:29 35.70202 -112.09290 7538 ft 102 kts 56°
2026-04-30 21:30 35.70964 -112.07767 7542 ft 107 kts 56°
2026-04-30 21:31 35.72654 -112.06325 7536 ft 107 kts
2026-04-30 21:31 35.74126 -112.06130 7538 ft 105 kts
2026-04-30 21:32 35.75593 -112.05948 7539 ft 105 kts
2026-04-30 21:32 35.75739 -112.05930 7538 ft 105 kts
2026-04-30 21:32 35.76471 -112.05840 7541 ft 105 kts